Time;durP1;ratioP1;P1;durP2;ratioP2;P2;SDS_P1;SDS_P2;PMS_P1;PMS_P2;Temp;Humidity;BMP_temperature;BMP_pressure;BME280_temperature;BME280_humidity;BME280_pressure;Samples;Min_cycle;Max_cycle;Signal;HPM_P1;HPM_P2
2022/05/27 00:00:50;;;;;;;;;;;14.00;99.90;;;;;;5075707;28;19965;-91
2022/05/27 00:03:17;;;;;;;;;;;13.90;99.90;;;;;;5083805;28;19984;-92
2022/05/27 00:05:43;;;;;;;;;;;13.90;99.90;;;;;;5084484;28;19983;-91
2022/05/27 00:08:12;;;;;;;;;;;13.90;99.90;;;;;;5084896;28;20277;-91
2022/05/27 00:10:38;;;;;;;;;;;13.90;99.90;;;;;;5084678;28;19988;-92
2022/05/27 00:13:06;;;;;;;;;;;13.90;99.90;;;;;;5084739;28;19920;-89
2022/05/27 00:15:41;;;;;;;;;;;13.90;99.90;;;;;;5089309;28;19920;-91
2022/05/27 00:18:08;;;;;;;;;;;13.80;99.90;;;;;;5089659;28;19983;-91
2022/05/27 00:20:35;;;;;;;;;;;13.80;99.90;;;;;;5080620;28;19928;-91
2022/05/27 00:23:02;;;;;;;;;;;13.80;99.90;;;;;;5083398;28;19959;-91
2022/05/27 00:25:30;;;;;;;;;;;13.80;99.90;;;;;;5082682;28;19988;-91
2022/05/27 00:27:57;;;;;;;;;;;13.80;99.90;;;;;;5081850;28;19927;-90
2022/05/27 00:30:24;;;;;;;;;;;13.80;99.90;;;;;;5097773;22;20269;-90
2022/05/27 00:32:51;;;;;;;;;;;13.80;99.90;;;;;;5083016;28;19928;-92
2022/05/27 00:35:18;;;;;;;;;;;13.80;99.90;;;;;;5080063;28;19920;-91
2022/05/27 00:37:44;;;;;;;;;;;13.70;99.90;;;;;;5082719;28;19927;-90
2022/05/27 00:40:11;;;;;;;;;;;13.70;99.90;;;;;;5088367;28;19920;-91
2022/05/27 00:42:40;;;;;;;;;;;13.70;99.90;;;;;;5087268;28;19935;-90
2022/05/27 00:45:13;;;;;;;;;;;13.70;99.90;;;;;;5088225;28;19943;-91
2022/05/27 00:47:40;;;;;;;;;;;13.70;99.90;;;;;;5086866;28;19928;-92
2022/05/27 00:50:09;;;;;;;;;;;13.70;99.90;;;;;;5092754;28;19980;-92
2022/05/27 00:52:37;;;;;;;;;;;13.70;99.90;;;;;;5088050;28;19928;-92
2022/05/27 00:55:06;;;;;;;;;;;13.60;99.90;;;;;;5093543;28;19916;-89
2022/05/27 00:57:34;;;;;;;;;;;13.60;99.90;;;;;;5097463;28;19943;-89
2022/05/27 01:00:06;;;;;;;;;;;13.60;99.90;;;;;;5092156;28;19969;-89
2022/05/27 01:02:34;;;;;;;;;;;13.50;99.90;;;;;;5086117;28;19983;-90
2022/05/27 01:05:01;;;;;;;;;;;13.50;99.90;;;;;;5085097;28;19987;-90
2022/05/27 01:07:28;;;;;;;;;;;13.40;99.90;;;;;;5085720;28;19921;-89
2022/05/27 01:09:54;;;;;;;;;;;13.40;99.90;;;;;;5086356;28;19921;-91
2022/05/27 01:12:28;;;;;;;;;;;13.30;99.90;;;;;;5087160;28;20119;-90
2022/05/27 01:15:03;;;;;;;;;;;13.40;99.90;;;;;;5089448;28;19988;-91
2022/05/27 01:17:34;;;;;;;;;;;13.30;99.90;;;;;;5076357;28;19919;-89
2022/05/27 01:20:19;;;;;;;;;;;13.30;99.90;;;;;;5090186;28;19920;-90
2022/05/27 01:23:04;;;;;;;;;;;13.20;99.90;;;;;;5090122;28;19984;-90
2022/05/27 01:25:49;;;;;;;;;;;13.20;99.90;;;;;;5090384;28;19921;-91
2022/05/27 01:28:31;;;;;;;;;;;13.20;99.90;;;;;;5090836;28;20275;-91
2022/05/27 01:31:01;;;;;;;;;;;13.20;99.90;;;;;;5087435;28;19927;-91
2022/05/27 01:33:32;;;;;;;;;;;13.20;99.90;;;;;;5090555;28;19921;-90
2022/05/27 01:36:03;;;;;;;;;;;13.20;99.90;;;;;;5084528;28;19989;-91
2022/05/27 01:38:32;;;;;;;;;;;13.10;99.90;;;;;;5075325;28;19921;-90
2022/05/27 01:41:02;;;;;;;;;;;13.10;99.90;;;;;;5090121;28;19932;-90
2022/05/27 01:43:37;;;;;;;;;;;13.10;99.90;;;;;;5089092;28;19979;-92
2022/05/27 01:46:07;;;;;;;;;;;13.10;99.90;;;;;;5093499;28;19983;-92
2022/05/27 01:48:37;;;;;;;;;;;13.10;99.90;;;;;;5094146;28;19984;-91
2022/05/27 01:51:06;;;;;;;;;;;13.10;99.90;;;;;;5093809;28;19988;-92
2022/05/27 01:53:36;;;;;;;;;;;13.10;99.90;;;;;;5094464;28;19928;-91
2022/05/27 01:56:06;;;;;;;;;;;13.00;99.90;;;;;;5094453;28;19983;-90
2022/05/27 01:58:36;;;;;;;;;;;13.10;99.90;;;;;;5094980;28;19991;-91
2022/05/27 02:01:06;;;;;;;;;;;13.00;99.90;;;;;;5094583;28;19928;-91
2022/05/27 02:03:35;;;;;;;;;;;12.90;99.90;;;;;;5094855;28;19979;-91
2022/05/27 02:06:04;;;;;;;;;;;13.20;99.90;;;;;;5087369;28;19920;-91
2022/05/27 02:08:33;;;;;;;;;;;12.90;99.90;;;;;;5084971;28;20224;-91
2022/05/27 02:11:02;;;;;;;;;;;12.90;99.90;;;;;;5093445;28;19928;-92
2022/05/27 02:13:33;;;;;;;;;;;12.90;99.90;;;;;;5094096;28;19920;-91
2022/05/27 02:16:00;;;;;;;;;;;12.90;99.90;;;;;;5094246;28;19976;-91
2022/05/27 02:18:29;;;;;;;;;;;12.80;99.90;;;;;;5095517;28;19940;-92
2022/05/27 02:20:58;;;;;;;;;;;12.80;99.90;;;;;;5095441;28;19976;-91
2022/05/27 02:23:27;;;;;;;;;;;12.80;99.90;;;;;;5095632;28;19980;-90
2022/05/27 02:25:55;;;;;;;;;;;12.80;99.90;;;;;;5094260;28;19920;-90
2022/05/27 02:28:23;;;;;;;;;;;12.80;99.90;;;;;;5094552;28;19985;-92
2022/05/27 02:30:52;;;;;;;;;;;12.80;99.90;;;;;;5093859;28;19926;-90
2022/05/27 02:36:07;;;;;;;;;;;12.80;99.90;;;;;;5093450;28;19967;-91
2022/05/27 02:38:34;;;;;;;;;;;12.80;99.90;;;;;;5092414;28;19988;-93
2022/05/27 02:41:03;;;;;;;;;;;12.80;99.90;;;;;;5097014;28;19967;-90
2022/05/27 02:43:34;;;;;;;;;;;12.80;99.90;;;;;;5092961;28;20271;-90
2022/05/27 02:46:11;;;;;;;;;;;12.70;99.90;;;;;;5093281;28;19921;-90
2022/05/27 02:48:40;;;;;;;;;;;12.70;99.90;;;;;;5094574;28;19928;-90
2022/05/27 02:51:14;;;;;;;;;;;12.70;99.90;;;;;;5093855;28;19925;-90
2022/05/27 02:53:46;;;;;;;;;;;12.70;99.90;;;;;;5083626;28;19927;-91
2022/05/27 02:56:15;;;;;;;;;;;12.70;99.90;;;;;;5092710;28;19927;-91
2022/05/27 02:58:41;;;;;;;;;;;12.70;99.90;;;;;;5092845;28;19995;-91
2022/05/27 03:01:09;;;;;;;;;;;12.60;99.90;;;;;;5095140;28;20241;-91
2022/05/27 03:03:36;;;;;;;;;;;12.60;99.90;;;;;;5091777;28;19921;-92
2022/05/27 03:06:17;;;;;;;;;;;12.60;99.90;;;;;;5085310;28;19988;-89
2022/05/27 03:08:49;;;;;;;;;;;12.60;99.90;;;;;;5084541;28;19952;-92
2022/05/27 03:11:17;;;;;;;;;;;12.50;99.90;;;;;;5092310;28;19947;-91
2022/05/27 03:13:57;;;;;;;;;;;12.50;99.90;;;;;;5092529;28;19940;-92
2022/05/27 03:16:28;;;;;;;;;;;12.50;99.90;;;;;;5089497;28;19920;-91
2022/05/27 03:19:05;;;;;;;;;;;12.50;99.90;;;;;;5093639;28;19927;-92
2022/05/27 03:21:36;;;;;;;;;;;12.40;99.90;;;;;;5091767;28;19920;-91
2022/05/27 03:24:07;;;;;;;;;;;12.40;99.90;;;;;;5093662;28;19983;-91
2022/05/27 03:26:42;;;;;;;;;;;12.40;99.90;;;;;;5092556;28;19984;-91
2022/05/27 03:29:14;;;;;;;;;;;12.40;99.90;;;;;;5093373;28;19921;-89
2022/05/27 03:31:43;;;;;;;;;;;12.40;99.90;;;;;;5094353;28;19947;-93
2022/05/27 03:34:15;;;;;;;;;;;12.40;99.90;;;;;;5094648;28;19987;-90
2022/05/27 03:36:46;;;;;;;;;;;12.30;99.90;;;;;;5095057;28;19984;-91
2022/05/27 03:39:16;;;;;;;;;;;12.30;99.90;;;;;;5095346;28;20263;-90
2022/05/27 03:41:46;;;;;;;;;;;12.30;99.90;;;;;;5093705;28;19920;-91
2022/05/27 03:44:15;;;;;;;;;;;12.30;99.90;;;;;;5098155;28;19988;-91
2022/05/27 03:46:41;;;;;;;;;;;12.40;99.90;;;;;;5097098;28;19980;-91
2022/05/27 03:49:08;;;;;;;;;;;12.30;99.90;;;;;;5096770;28;19979;-91
2022/05/27 03:51:36;;;;;;;;;;;12.20;99.90;;;;;;5096613;28;19943;-91
2022/05/27 03:54:06;;;;;;;;;;;12.30;99.90;;;;;;5096494;28;19927;-92
2022/05/27 03:56:33;;;;;;;;;;;12.30;99.90;;;;;;5097112;28;19980;-92
2022/05/27 03:59:00;;;;;;;;;;;12.30;99.90;;;;;;5098262;28;19939;-91
2022/05/27 04:01:29;;;;;;;;;;;12.40;99.90;;;;;;5098815;28;19935;-91
2022/05/27 04:03:56;;;;;;;;;;;12.40;99.90;;;;;;5099110;28;19908;-92
2022/05/27 04:06:23;;;;;;;;;;;12.40;99.90;;;;;;5089522;28;19913;-91
2022/05/27 04:08:50;;;;;;;;;;;12.40;99.90;;;;;;5091324;28;19909;-91
2022/05/27 04:11:19;;;;;;;;;;;12.50;99.90;;;;;;5081949;28;20008;-91
2022/05/27 04:13:46;;;;;;;;;;;12.50;99.90;;;;;;5098400;28;19908;-90
2022/05/27 04:16:13;;;;;;;;;;;12.50;99.90;;;;;;5098372;28;19992;-91
2022/05/27 04:18:39;;;;;;;;;;;12.60;99.90;;;;;;5098702;28;19988;-91
2022/05/27 04:21:06;;;;;;;;;;;12.60;99.90;;;;;;5098697;28;19967;-90
2022/05/27 04:23:33;;;;;;;;;;;12.70;99.90;;;;;;5098767;28;19955;-91
2022/05/27 04:25:59;;;;;;;;;;;12.80;99.90;;;;;;5098641;28;19909;-91
2022/05/27 04:28:27;;;;;;;;;;;12.90;99.90;;;;;;5098271;28;19908;-90
2022/05/27 04:30:54;;;;;;;;;;;12.90;99.90;;;;;;5098696;28;19968;-89
2022/05/27 04:33:21;;;;;;;;;;;13.00;99.90;;;;;;5098841;28;19932;-92
2022/05/27 04:35:48;;;;;;;;;;;13.10;99.90;;;;;;5098651;28;19936;-91
2022/05/27 04:38:15;;;;;;;;;;;13.10;99.90;;;;;;5097274;28;19916;-90
2022/05/27 04:40:41;;;;;;;;;;;13.20;99.90;;;;;;5098338;28;19912;-90
2022/05/27 04:43:08;;;;;;;;;;;13.30;99.90;;;;;;5098013;28;19925;-90
2022/05/27 04:45:36;;;;;;;;;;;13.30;99.90;;;;;;5098320;28;20168;-91
2022/05/27 04:48:03;;;;;;;;;;;13.40;99.90;;;;;;5098505;28;20044;-90
2022/05/27 04:50:30;;;;;;;;;;;13.40;99.90;;;;;;5098506;28;19988;-91
2022/05/27 04:52:56;;;;;;;;;;;13.50;99.90;;;;;;5098383;28;19983;-90
2022/05/27 04:55:23;;;;;;;;;;;13.20;99.90;;;;;;5097271;28;19988;-91
2022/05/27 04:57:51;;;;;;;;;;;13.60;99.90;;;;;;5097418;28;19978;-90
2022/05/27 05:00:20;;;;;;;;;;;13.70;99.90;;;;;;5097490;28;19920;-90
2022/05/27 05:02:48;;;;;;;;;;;13.70;99.90;;;;;;5097754;28;19908;-90
2022/05/27 05:05:15;;;;;;;;;;;13.80;99.90;;;;;;5097241;28;19967;-89
2022/05/27 05:08:02;;;;;;;;;;;13.80;99.90;;;;;;5098063;28;19921;-93
2022/05/27 05:29:31;;;;;;;;;;;14.10;99.90;;;;;;5007842;28;19976;-90
2022/05/27 05:32:04;;;;;;;;;;;14.20;99.90;;;;;;5000451;28;19922;-90
2022/05/27 05:34:33;;;;;;;;;;;14.20;99.90;;;;;;5034962;28;20220;-91
2022/05/27 05:37:00;;;;;;;;;;;14.20;99.90;;;;;;5069746;28;20291;-91
2022/05/27 05:39:32;;;;;;;;;;;14.20;99.90;;;;;;5096859;28;19996;-91
2022/05/27 05:42:04;;;;;;;;;;;14.20;99.90;;;;;;5096547;28;19931;-91
2022/05/27 05:44:34;;;;;;;;;;;15.30;99.90;;;;;;5097083;28;19921;-91
2022/05/27 05:47:37;;;;;;;;;;;14.60;99.90;;;;;;5096440;28;19939;-90
2022/05/27 05:59:36;;;;;;;;;;;15.30;99.90;;;;;;4943065;28;19941;-93
2022/05/27 06:02:20;;;;;;;;;;;14.40;99.90;;;;;;5016584;28;19937;-93
2022/05/27 06:04:47;;;;;;;;;;;14.20;99.90;;;;;;5059762;28;19924;-93
2022/05/27 06:07:17;;;;;;;;;;;14.30;99.90;;;;;;5082453;28;20461;-92
2022/05/27 06:09:44;;;;;;;;;;;14.30;99.90;;;;;;5096795;28;19916;-94
2022/05/27 06:12:25;;;;;;;;;;;;;;;;;;;;;
2022/05/27 06:14:53;;;;;;;;;;;14.40;99.90;;;;;;5096989;28;19912;-92
2022/05/27 06:23:23;;;;;;;;;;;14.40;99.90;;;;;;5052986;22;19924;-64
2022/05/27 06:25:54;;;;;;;;;;;14.40;99.90;;;;;;5082292;28;19926;-68
2022/05/27 06:36:46;;;;;;;;;;;14.50;99.90;;;;;;5040978;28;19944;-68
2022/05/27 06:39:13;;;;;;;;;;;14.50;99.90;;;;;;5066578;28;20116;-68
2022/05/27 06:41:39;;;;;;;;;;;14.50;99.90;;;;;;5066480;28;19921;-68
2022/05/27 06:44:09;;;;;;;;;;;14.50;99.90;;;;;;5063871;28;19921;-68
2022/05/27 06:46:36;;;;;;;;;;;14.50;99.90;;;;;;5065728;28;19987;-68
2022/05/27 06:49:03;;;;;;;;;;;14.50;99.90;;;;;;5066072;28;20127;-68
2022/05/27 06:51:30;;;;;;;;;;;14.50;99.90;;;;;;5066230;28;19921;-68
2022/05/27 06:53:57;;;;;;;;;;;14.50;99.90;;;;;;5066184;28;19927;-68
2022/05/27 06:56:24;;;;;;;;;;;14.50;99.90;;;;;;5055682;28;19927;-68
2022/05/27 06:58:53;;;;;;;;;;;14.40;99.90;;;;;;5046079;28;19922;-68
2022/05/27 07:01:22;;;;;;;;;;;14.40;99.90;;;;;;5048593;28;19935;-68
2022/05/27 07:03:48;;;;;;;;;;;14.40;99.90;;;;;;5055963;28;19921;-67
2022/05/27 07:06:15;;;;;;;;;;;14.30;99.90;;;;;;5061598;28;19984;-67
2022/05/27 07:08:42;;;;;;;;;;;14.30;99.90;;;;;;5065864;28;19927;-68
2022/05/27 07:11:08;;;;;;;;;;;14.30;99.90;;;;;;5065826;28;19920;-69
2022/05/27 07:13:35;;;;;;;;;;;14.20;99.90;;;;;;5065850;28;19927;-68
2022/05/27 07:16:01;;;;;;;;;;;14.20;99.90;;;;;;5045167;28;19928;-68
2022/05/27 07:18:29;;;;;;;;;;;14.20;99.90;;;;;;5047107;28;19984;-69
2022/05/27 07:20:59;;;;;;;;;;;14.20;99.90;;;;;;5065302;28;19920;-68
2022/05/27 07:23:26;;;;;;;;;;;14.20;99.90;;;;;;5065532;28;19927;-68
2022/05/27 07:25:53;;;;;;;;;;;14.20;99.90;;;;;;5064842;28;19956;-68
2022/05/27 07:28:19;;;;;;;;;;;14.30;99.90;;;;;;5065775;28;19928;-69
2022/05/27 07:30:46;;;;;;;;;;;14.30;99.90;;;;;;5065345;28;19921;-67
2022/05/27 07:33:13;;;;;;;;;;;14.40;99.90;;;;;;5065386;28;19927;-68
2022/05/27 07:35:40;;;;;;;;;;;14.30;99.90;;;;;;5064439;28;19921;-68
2022/05/27 07:38:07;;;;;;;;;;;14.30;99.90;;;;;;5065333;28;19927;-68
2022/05/27 07:40:34;;;;;;;;;;;14.30;99.90;;;;;;5065251;28;19921;-68
2022/05/27 07:43:02;;;;;;;;;;;14.30;99.90;;;;;;5062744;28;19927;-68
2022/05/27 07:45:29;;;;;;;;;;;14.30;99.90;;;;;;5056445;28;19929;-68
2022/05/27 07:47:56;;;;;;;;;;;14.40;99.90;;;;;;5049804;28;19921;-68
2022/05/27 07:50:23;;;;;;;;;;;14.40;99.90;;;;;;5065273;28;19942;-68
2022/05/27 07:52:51;;;;;;;;;;;14.40;99.90;;;;;;5064995;28;19929;-69
2022/05/27 07:55:18;;;;;;;;;;;14.50;99.90;;;;;;5064580;28;19996;-68
2022/05/27 07:57:45;;;;;;;;;;;14.50;99.90;;;;;;5065025;28;19928;-69
2022/05/27 08:00:13;;;;;;;;;;;14.50;99.90;;;;;;5064547;28;19927;-68
2022/05/27 08:02:41;;;;;;;;;;;14.50;99.90;;;;;;5064621;28;19920;-68
2022/05/27 08:05:09;;;;;;;;;;;14.60;99.90;;;;;;5064542;28;19948;-68
2022/05/27 08:07:35;;;;;;;;;;;14.60;99.90;;;;;;5064536;28;20249;-68
2022/05/27 08:10:04;;;;;;;;;;;14.70;99.90;;;;;;5064419;28;19921;-68
2022/05/27 08:12:31;;;;;;;;;;;14.70;99.90;;;;;;5064939;28;19959;-68
2022/05/27 08:14:58;;;;;;;;;;;14.90;99.90;;;;;;5064492;28;20200;-68
2022/05/27 08:17:24;;;;;;;;;;;15.00;99.90;;;;;;5063164;28;20208;-68
2022/05/27 08:19:52;;;;;;;;;;;15.00;99.90;;;;;;5062389;28;19921;-68
2022/05/27 08:22:19;;;;;;;;;;;15.10;99.90;;;;;;5064429;28;19924;-68
2022/05/27 08:24:45;;;;;;;;;;;15.10;99.90;;;;;;5064678;28;19927;-68
2022/05/27 08:27:13;;;;;;;;;;;15.10;99.90;;;;;;5063600;28;20284;-68
2022/05/27 08:29:40;;;;;;;;;;;15.10;99.90;;;;;;5064530;28;19956;-68
2022/05/27 08:32:07;;;;;;;;;;;15.00;99.90;;;;;;5064454;28;19920;-68
2022/05/27 08:40:08;;;;;;;;;;;14.90;99.90;;;;;;5052334;28;19924;-67
2022/05/27 08:42:40;;;;;;;;;;;14.90;99.90;;;;;;5044261;28;19927;-68
2022/05/27 08:45:09;;;;;;;;;;;14.90;99.90;;;;;;5043799;28;19927;-68
2022/05/27 08:47:37;;;;;;;;;;;15.00;99.90;;;;;;5063613;28;19920;-68
2022/05/27 08:50:07;;;;;;;;;;;15.00;99.90;;;;;;5063761;28;19920;-67
2022/05/27 08:52:37;;;;;;;;;;;15.10;99.90;;;;;;5062557;28;20204;-66
2022/05/27 08:55:06;;;;;;;;;;;15.10;99.90;;;;;;5046308;28;20120;-67
2022/05/27 09:00:21;;;;;;;;;;;15.30;99.90;;;;;;5063737;28;20242;-67
2022/05/27 09:02:51;;;;;;;;;;;15.30;99.90;;;;;;5063562;28;19927;-71
2022/05/27 09:05:21;;;;;;;;;;;15.30;99.90;;;;;;5055773;28;19928;-67
2022/05/27 09:07:49;;;;;;;;;;;15.30;99.90;;;;;;5043529;28;19956;-67
2022/05/27 09:10:17;;;;;;;;;;;15.40;99.90;;;;;;5063638;28;19920;-67
2022/05/27 09:12:48;;;;;;;;;;;15.50;99.90;;;;;;5063405;28;20028;-67
2022/05/27 09:15:19;;;;;;;;;;;15.60;99.90;;;;;;5062467;28;20120;-68
2022/05/27 09:17:51;;;;;;;;;;;15.70;99.90;;;;;;5063563;28;19921;-67
2022/05/27 09:20:24;;;;;;;;;;;15.80;99.90;;;;;;5063091;28;19924;-68
2022/05/27 09:22:54;;;;;;;;;;;15.90;99.90;;;;;;5063143;28;19928;-67
2022/05/27 09:25:23;;;;;;;;;;;15.90;99.90;;;;;;5055949;28;19984;-68
2022/05/27 09:27:57;;;;;;;;;;;15.90;99.90;;;;;;5062600;28;19921;-67
2022/05/27 09:30:25;;;;;;;;;;;16.00;99.90;;;;;;5054083;28;19928;-68
2022/05/27 09:32:53;;;;;;;;;;;16.10;99.90;;;;;;5062908;28;19952;-68
2022/05/27 09:35:22;;;;;;;;;;;16.20;99.90;;;;;;5062044;28;19924;-68
2022/05/27 09:37:50;;;;;;;;;;;16.20;99.90;;;;;;5060284;28;19935;-67
2022/05/27 09:40:18;;;;;;;;;;;16.20;99.90;;;;;;5060965;28;20147;-68
2022/05/27 09:42:47;;;;;;;;;;;16.10;99.90;;;;;;5054538;28;19921;-68
2022/05/27 09:45:13;;;;;;;;;;;16.10;99.90;;;;;;5057073;28;19929;-68
2022/05/27 09:47:42;;;;;;;;;;;16.00;99.90;;;;;;5052914;28;19928;-68
2022/05/27 09:50:14;;;;;;;;;;;15.90;99.90;;;;;;5057546;28;19928;-68
2022/05/27 09:52:42;;;;;;;;;;;15.80;99.90;;;;;;5051916;28;19927;-68
2022/05/27 09:55:15;;;;;;;;;;;15.80;99.90;;;;;;5047535;28;19921;-68
2022/05/27 09:57:54;;;;;;;;;;;15.80;99.90;;;;;;5052085;28;19929;-67
2022/05/27 10:00:33;;;;;;;;;;;15.80;99.90;;;;;;5062704;28;20204;-67
2022/05/27 10:03:19;;;;;;;;;;;15.70;99.90;;;;;;5062589;28;19927;-68
2022/05/27 10:05:50;;;;;;;;;;;15.70;99.90;;;;;;5061790;28;19995;-68
2022/05/27 10:08:26;;;;;;;;;;;15.80;99.90;;;;;;5065954;28;19984;-67
2022/05/27 10:11:05;;;;;;;;;;;15.80;99.90;;;;;;5066553;28;20089;-68
2022/05/27 10:13:34;;;;;;;;;;;15.80;99.90;;;;;;5063232;28;20208;-67
2022/05/27 10:16:04;;;;;;;;;;;15.90;99.90;;;;;;5057366;28;19921;-68
2022/05/27 10:18:32;;;;;;;;;;;16.00;99.90;;;;;;5066113;28;19920;-67
2022/05/27 10:21:00;;;;;;;;;;;16.00;99.90;;;;;;5066118;28;19937;-67
2022/05/27 10:23:28;;;;;;;;;;;15.90;99.90;;;;;;5053803;28;19925;-68
2022/05/27 10:25:55;;;;;;;;;;;15.90;99.90;;;;;;5059545;28;19927;-68
2022/05/27 10:28:27;;;;;;;;;;;15.90;99.90;;;;;;5066192;28;19987;-68
2022/05/27 10:30:55;;;;;;;;;;;15.90;99.90;;;;;;5054391;28;19957;-68
2022/05/27 10:33:23;;;;;;;;;;;15.80;99.90;;;;;;5066372;28;19921;-68
2022/05/27 10:35:51;;;;;;;;;;;15.80;99.90;;;;;;5066025;28;19927;-68
2022/05/27 10:38:25;;;;;;;;;;;15.80;99.90;;;;;;5064049;28;20256;-68
2022/05/27 10:40:54;;;;;;;;;;;15.90;99.90;;;;;;5057193;28;19924;-68
2022/05/27 10:43:25;;;;;;;;;;;15.90;99.90;;;;;;5066113;28;20200;-67
2022/05/27 10:45:53;;;;;;;;;;;16.00;99.90;;;;;;5065948;28;19921;-68
2022/05/27 10:48:42;;;;;;;;;;;16.00;99.90;;;;;;5050364;28;19980;-68
2022/05/27 10:51:17;;;;;;;;;;;16.00;99.90;;;;;;5066331;28;19927;-68
2022/05/27 10:53:56;;;;;;;;;;;16.00;99.90;;;;;;5066332;28;19920;-67
2022/05/27 10:56:28;;;;;;;;;;;16.00;99.90;;;;;;5052078;28;19964;-67
2022/05/27 11:02:07;;;;;;;;;;;16.10;99.90;;;;;;5063500;28;20120;-68
2022/05/27 11:04:41;;;;;;;;;;;16.20;99.90;;;;;;5065967;28;19985;-68
2022/05/27 11:07:15;;;;;;;;;;;16.30;99.90;;;;;;5064791;28;19988;-68
2022/05/27 11:09:47;;;;;;;;;;;16.30;99.90;;;;;;5065598;28;19921;-68
2022/05/27 11:12:18;;;;;;;;;;;16.50;99.90;;;;;;5065492;28;19952;-67
2022/05/27 11:15:11;;;;;;;;;;;16.50;99.90;;;;;;5065308;28;19939;-67
2022/05/27 11:17:43;;;;;;;;;;;16.70;99.90;;;;;;5065323;28;20093;-68
2022/05/27 11:20:24;;;;;;;;;;;16.70;99.90;;;;;;5065591;28;20223;-68
2022/05/27 11:22:55;;;;;;;;;;;16.70;99.90;;;;;;5062345;28;20112;-68
2022/05/27 11:25:36;;;;;;;;;;;16.70;99.90;;;;;;5063774;28;19932;-69
2022/05/27 11:28:12;;;;;;;;;;;16.70;99.90;;;;;;5064410;28;19921;-68
2022/05/27 11:30:45;;;;;;;;;;;16.70;99.90;;;;;;5054330;28;19959;-68
2022/05/27 11:33:24;;;;;;;;;;;16.70;99.90;;;;;;5054056;28;19927;-68
2022/05/27 11:36:10;;;;;;;;;;;16.70;99.90;;;;;;5061151;28;19927;-66
2022/05/27 11:38:50;;;;;;;;;;;16.70;99.90;;;;;;5065446;28;19984;-66
2022/05/27 11:41:20;;;;;;;;;;;16.70;99.90;;;;;;5063257;28;19921;-67
2022/05/27 11:43:48;;;;;;;;;;;16.70;99.90;;;;;;5059913;28;19921;-66
2022/05/27 11:46:39;;;;;;;;;;;16.60;99.90;;;;;;5051038;28;19943;-66
2022/05/27 11:49:15;;;;;;;;;;;16.50;99.90;;;;;;5064666;28;19920;-66
2022/05/27 11:51:48;;;;;;;;;;;16.40;99.90;;;;;;5065018;28;19920;-66
2022/05/27 11:54:24;;;;;;;;;;;16.30;99.90;;;;;;5065138;28;19924;-67
2022/05/27 11:56:57;;;;;;;;;;;16.30;99.90;;;;;;5064182;28;19921;-66
2022/05/27 11:59:25;;;;;;;;;;;16.30;99.90;;;;;;5064944;23;19921;-67
2022/05/27 12:01:55;;;;;;;;;;;16.30;99.90;;;;;;5035526;28;20234;-67
2022/05/27 12:04:27;;;;;;;;;;;16.20;99.90;;;;;;5051299;28;19927;-67
2022/05/27 12:06:57;;;;;;;;;;;16.20;99.90;;;;;;5046843;28;20258;-67
2022/05/27 12:09:28;;;;;;;;;;;16.20;99.90;;;;;;5042371;28;19921;-66
2022/05/27 12:11:57;;;;;;;;;;;16.20;99.90;;;;;;5044160;28;19921;-67
2022/05/27 12:14:29;;;;;;;;;;;16.10;99.90;;;;;;5043843;28;19921;-66
2022/05/27 12:16:57;;;;;;;;;;;16.10;99.90;;;;;;5040793;28;20000;-66
2022/05/27 12:19:26;;;;;;;;;;;16.00;99.90;;;;;;5034653;28;19929;-67
2022/05/27 12:22:06;;;;;;;;;;;16.00;99.90;;;;;;5042261;28;19959;-67
2022/05/27 12:24:37;;;;;;;;;;;16.10;99.90;;;;;;5027623;28;20116;-67
2022/05/27 12:27:04;;;;;;;;;;;16.10;99.90;;;;;;5043848;28;20120;-67
2022/05/27 12:29:34;;;;;;;;;;;16.10;99.90;;;;;;5040919;28;20914;-67
2022/05/27 12:32:00;;;;;;;;;;;16.10;99.90;;;;;;5048968;28;19933;-67
2022/05/27 12:34:40;;;;;;;;;;;16.20;99.90;;;;;;5043975;28;19921;-67
2022/05/27 12:37:18;;;;;;;;;;;16.30;99.90;;;;;;5030064;28;19921;-66
2022/05/27 12:39:48;;;;;;;;;;;16.20;99.90;;;;;;5041195;28;19928;-67
2022/05/27 12:42:18;;;;;;;;;;;16.20;99.90;;;;;;5041896;28;20124;-67
2022/05/27 12:44:46;;;;;;;;;;;16.10;99.90;;;;;;5040963;28;19936;-67
2022/05/27 12:47:16;;;;;;;;;;;16.10;99.90;;;;;;5035951;28;19921;-67
2022/05/27 12:49:45;;;;;;;;;;;16.10;99.90;;;;;;5042248;28;19921;-66
2022/05/27 12:52:26;;;;;;;;;;;16.10;99.90;;;;;;5042978;28;19929;-67
2022/05/27 12:55:02;;;;;;;;;;;16.00;99.90;;;;;;5046407;28;19929;-68
2022/05/27 13:03:31;;;;;;;;;;;16.30;99.90;;;;;;5043244;28;19967;-67
2022/05/27 13:06:07;;;;;;;;;;;16.50;99.90;;;;;;5048735;28;19921;-67
2022/05/27 13:08:35;;;;;;;;;;;16.80;99.90;;;;;;5049308;28;19957;-67
2022/05/27 13:11:03;;;;;;;;;;;16.80;99.90;;;;;;5063147;28;19921;-67
2022/05/27 13:13:31;;;;;;;;;;;16.80;99.90;;;;;;5047310;28;19921;-66
2022/05/27 13:16:07;;;;;;;;;;;16.80;99.90;;;;;;5042311;28;20143;-65
2022/05/27 13:18:51;;;;;;;;;;;16.80;99.90;;;;;;5042748;28;20204;-67
2022/05/27 13:21:21;;;;;;;;;;;16.70;99.90;;;;;;5040389;28;19921;-68
2022/05/27 13:23:52;;;;;;;;;;;16.70;99.90;;;;;;5042560;28;19947;-67
2022/05/27 13:26:27;;;;;;;;;;;16.60;99.90;;;;;;5039983;28;19936;-69
2022/05/27 13:28:55;;;;;;;;;;;16.50;99.90;;;;;;5035602;28;19921;-66
2022/05/27 13:31:24;;;;;;;;;;;16.70;99.90;;;;;;5042766;28;19966;-69
2022/05/27 13:33:53;;;;;;;;;;;16.80;99.90;;;;;;5039596;28;20216;-69
2022/05/27 13:36:21;;;;;;;;;;;17.00;99.90;;;;;;5045621;28;19927;-69
2022/05/27 13:38:52;;;;;;;;;;;17.10;99.90;;;;;;5051307;28;20231;-69
2022/05/27 13:41:18;;;;;;;;;;;17.10;99.90;;;;;;5045544;28;19921;-69
2022/05/27 13:43:50;;;;;;;;;;;17.00;99.90;;;;;;5045938;28;20285;-69
2022/05/27 13:46:19;;;;;;;;;;;17.00;99.90;;;;;;5037847;28;20120;-70
2022/05/27 13:48:50;;;;;;;;;;;16.90;99.90;;;;;;5047538;28;19927;-69
2022/05/27 13:51:18;;;;;;;;;;;16.80;99.90;;;;;;5045486;28;19921;-69
2022/05/27 13:53:45;;;;;;;;;;;16.60;99.90;;;;;;5046465;28;19959;-66
2022/05/27 13:56:13;;;;;;;;;;;16.30;99.90;;;;;;5047118;28;19933;-69
2022/05/27 13:58:48;;;;;;;;;;;16.10;99.90;;;;;;5047159;28;19928;-69
2022/05/27 14:01:16;;;;;;;;;;;16.00;99.90;;;;;;5040425;28;19929;-68
2022/05/27 14:03:45;;;;;;;;;;;15.90;99.90;;;;;;5046729;28;19921;-69
2022/05/27 14:06:22;;;;;;;;;;;15.90;99.90;;;;;;5045253;28;20207;-69
2022/05/27 14:08:48;;;;;;;;;;;15.90;99.90;;;;;;5054458;28;20310;-69
2022/05/27 14:11:17;;;;;;;;;;;16.00;99.90;;;;;;5046249;28;19921;-69
2022/05/27 14:13:47;;;;;;;;;;;16.00;99.90;;;;;;5046366;28;19960;-69
2022/05/27 14:16:22;;;;;;;;;;;16.10;99.90;;;;;;5044633;28;20127;-68
2022/05/27 14:18:48;;;;;;;;;;;16.30;99.90;;;;;;5045982;28;19943;-69
2022/05/27 14:24:00;;;;;;;;;;;16.50;99.90;;;;;;5044130;28;19932;-69
2022/05/27 14:26:28;;;;;;;;;;;16.50;99.90;;;;;;5044519;28;20296;-69
2022/05/27 14:28:56;;;;;;;;;;;16.50;99.90;;;;;;5046153;28;20209;-69
2022/05/27 14:31:25;;;;;;;;;;;16.30;99.90;;;;;;5046190;28;20204;-69
2022/05/27 14:33:53;;;;;;;;;;;16.30;99.90;;;;;;5044115;28;20155;-69
2022/05/27 14:36:20;;;;;;;;;;;16.40;99.90;;;;;;5044980;28;19921;-69
2022/05/27 14:38:49;;;;;;;;;;;16.30;99.90;;;;;;5045791;28;20090;-69
2022/05/27 14:41:17;;;;;;;;;;;16.40;99.90;;;;;;5045523;28;19921;-68
2022/05/27 14:43:48;;;;;;;;;;;16.30;99.90;;;;;;5045977;28;19928;-71
2022/05/27 14:46:16;;;;;;;;;;;16.30;99.90;;;;;;5053219;28;19988;-69
2022/05/27 14:48:45;;;;;;;;;;;16.50;99.90;;;;;;5045581;28;20120;-69
2022/05/27 14:51:23;;;;;;;;;;;16.80;99.90;;;;;;5046076;28;20200;-69
2022/05/27 14:53:50;;;;;;;;;;;17.10;99.90;;;;;;5044858;28;19921;-69
2022/05/27 14:56:23;;;;;;;;;;;17.30;99.90;;;;;;5039684;28;19921;-69
2022/05/27 14:58:50;;;;;;;;;;;17.40;99.90;;;;;;5045590;28;20208;-69
2022/05/27 15:01:19;;;;;;;;;;;17.50;99.90;;;;;;5046078;28;19927;-69
2022/05/27 15:04:07;;;;;;;;;;;17.40;99.90;;;;;;5045312;28;19927;-69
2022/05/27 15:06:36;;;;;;;;;;;17.40;99.90;;;;;;5039592;28;19928;-69
2022/05/27 15:09:07;;;;;;;;;;;17.40;99.90;;;;;;5045076;28;19921;-68
2022/05/27 15:11:35;;;;;;;;;;;17.40;99.90;;;;;;5042350;28;19921;-69
2022/05/27 15:14:19;;;;;;;;;;;17.30;99.90;;;;;;5045717;28;19927;-68
2022/05/27 15:16:53;;;;;;;;;;;17.30;99.90;;;;;;5045381;28;19921;-69
2022/05/27 15:19:21;;;;;;;;;;;17.20;99.90;;;;;;5052539;28;20205;-69
2022/05/27 15:21:50;;;;;;;;;;;17.00;99.90;;;;;;5040580;28;19927;-68
2022/05/27 15:24:21;;;;;;;;;;;16.90;99.90;;;;;;5045791;28;19929;-67
2022/05/27 15:35:07;;;;;;;;;;;17.10;99.90;;;;;;5044341;28;19924;-68
2022/05/27 15:37:34;;;;;;;;;;;17.10;99.90;;;;;;5042346;28;19936;-69
2022/05/27 15:40:01;;;;;;;;;;;16.90;99.90;;;;;;5047335;28;19927;-69
2022/05/27 15:42:28;;;;;;;;;;;16.90;99.90;;;;;;5045273;28;19927;-69
2022/05/27 15:44:55;;;;;;;;;;;16.90;99.90;;;;;;5044774;28;19921;-69
2022/05/27 15:47:21;;;;;;;;;;;17.00;99.90;;;;;;5043954;28;19921;-69
2022/05/27 15:49:48;;;;;;;;;;;17.00;99.90;;;;;;5045068;28;19929;-69